North Sterling, Connecticut
Current Conditions -  °F | °C
As of 12:52 PM on Thursday 23 Oct 2014 (Local Time) from KIJD Reporting Station
Overcast Overcast  
Wind Chill: 56°   Ceiling: 2000
Heat Index: 56°   Visibility: 10mi
Dew Point: 47°   Wind: 13mph
Humidity: 72%   Direction: 20°NNE
Pressure: 29.63"   Gusts: NA
Location:  41.732°N, 71.8171°W
Report Text: KIJD 231652Z AUTO 02011KT 10SM OVC020 13/08 A2963 RMK AO2 SLP032 T01330083
Loading
Personal Weather Stations






























Interactive Weather Map
Tropical Storm Tracking
New forecast layout! Learn more

10-Day Weather Forecast

Advertisements
Track Severe Weather on mobile